Time;durP1;ratioP1;P1;durP2;ratioP2;P2;SDS_P1;SDS_P2;PMS_P1;PMS_P2;Temp;Humidity;BMP_temperature;BMP_pressure;BME280_temperature;BME280_humidity;BME280_pressure;Samples;Min_cycle;Max_cycle;Signal;HPM_P1;HPM_P2
2022/05/20 00:00:05;;;;;;;26.60;22.23;;;;;;;19.73;54.74;102081.34;5134074;27;20092;-60
2022/05/20 00:02:32;;;;;;;26.85;21.42;;;;;;;19.67;54.79;102083.63;5134243;27;20039;-61
2022/05/20 00:05:24;;;;;;;23.30;19.75;;;;;;;19.60;54.53;102084.31;5134214;27;20047;-60
2022/05/20 00:07:51;;;;;;;23.60;18.73;;;;;;;19.57;54.44;102084.56;5133886;27;20051;-61
2022/05/20 00:10:17;;;;;;;20.63;16.13;;;;;;;19.51;54.67;102085.97;5133932;27;20062;-60
2022/05/20 00:12:45;;;;;;;12.00;10.68;;;;;;;19.45;54.87;102080.19;5134183;27;20043;-60
2022/05/20 00:15:22;;;;;;;10.75;9.55;;;;;;;19.39;54.94;102080.75;5133697;27;20516;-60
2022/05/20 00:17:48;;;;;;;11.50;10.30;;;;;;;19.34;54.96;102090.19;5115434;27;20051;-60
2022/05/20 00:20:17;;;;;;;12.20;11.00;;;;;;;19.31;54.51;102089.56;5133561;27;20043;-60
2022/05/20 00:22:44;;;;;;;12.80;11.43;;;;;;;19.28;54.61;102089.81;5133821;27;20043;-59
2022/05/20 00:28:03;;;;;;;17.75;14.45;;;;;;;19.22;54.77;102083.06;5133269;27;20501;-59
2022/05/20 00:30:30;;;;;;;16.42;14.60;;;;;;;19.18;54.98;102084.31;5133618;27;20058;-59
2022/05/20 00:32:57;;;;;;;16.73;14.20;;;;;;;19.12;54.68;102086.72;5133224;27;20047;-59
2022/05/20 00:35:26;;;;;;;17.98;14.70;;;;;;;19.07;54.71;102087.13;5133256;27;20047;-59
2022/05/20 00:37:54;;;;;;;19.20;15.95;;;;;;;19.02;54.59;102090.25;5133365;27;20540;-61
2022/05/20 00:40:23;;;;;;;17.08;14.90;;;;;;;18.99;54.82;102089.66;5133243;27;20055;-60
2022/05/20 00:42:50;;;;;;;17.05;15.00;;;;;;;18.96;54.71;102098.09;5133263;27;20045;-61
2022/05/20 00:45:18;;;;;;;19.83;17.00;;;;;;;18.92;54.60;102089.34;5133306;27;20412;-60
2022/05/20 00:47:45;;;;;;;19.90;16.50;;;;;;;18.88;54.94;102087.88;5133405;27;20101;-60
2022/05/20 00:50:14;;;;;;;22.17;17.73;;;;;;;18.86;55.15;102075.38;5133450;27;20038;-60
2022/05/20 00:52:47;;;;;;;20.38;17.02;;;;;;;18.83;54.76;102079.25;5119763;28;20039;-61
2022/05/20 00:55:18;;;;;;;20.75;16.30;;;;;;;18.81;54.72;102083.09;5113143;28;20050;-60
2022/05/20 00:57:52;;;;;;;17.02;15.23;;;;;;;18.78;54.83;102083.34;5113344;28;20044;-61
2022/05/20 01:00:23;;;;;;;18.05;16.08;;;;;;;18.76;54.82;102083.47;5113310;28;20051;-60
2022/05/20 01:02:54;;;;;;;20.08;17.08;;;;;;;18.70;55.09;102081.28;5114977;27;20447;-61
2022/05/20 01:05:36;;;;;;;23.90;18.58;;;;;;;18.63;55.37;102074.66;5137333;27;20082;-61
2022/05/20 01:08:05;;;;;;;25.52;19.45;;;;;;;18.59;55.11;102073.16;5136880;27;20039;-61
2022/05/20 01:10:32;;;;;;;23.38;18.13;;;;;;;18.55;55.42;102074.38;5136267;27;20047;-60
2022/05/20 01:12:58;;;;;;;23.05;18.63;;;;;;;18.54;55.23;102076.22;5136779;27;20039;-61
2022/05/20 01:15:29;;;;;;;25.63;18.35;;;;;;;18.52;55.13;102077.34;5137063;27;20047;-61
2022/05/20 01:17:57;;;;;;;21.70;18.13;;;;;;;18.48;55.29;102081.34;5137201;27;20086;-61
2022/05/20 01:20:37;;;;;;;22.55;18.85;;;;;;;18.42;55.26;102069.13;5137493;27;20126;-61
2022/05/20 01:23:22;;;;;;;23.63;19.77;;;;;;;18.39;55.34;102069.38;5137102;27;20111;-60
2022/05/20 01:25:51;;;;;;;25.35;19.70;;;;;;;18.37;55.24;102061.34;5137277;27;20043;-61
2022/05/20 01:28:20;;;;;;;22.65;20.20;;;;;;;18.36;55.43;102070.50;5136778;27;20039;-61
2022/05/20 01:30:51;;;;;;;25.90;20.58;;;;;;;18.34;55.42;102077.06;5136634;27;20127;-61
2022/05/20 01:33:31;;;;;;;27.95;21.83;;;;;;;18.32;55.30;102077.19;5136975;27;20043;-60
2022/05/20 01:36:01;;;;;;;30.00;20.92;;;;;;;18.24;55.08;102070.69;5137011;27;20046;-61
2022/05/20 01:38:28;;;;;;;26.00;20.15;;;;;;;18.13;55.15;102077.00;5136328;27;20059;-60
2022/05/20 01:41:12;;;;;;;20.15;17.35;;;;;;;18.07;55.37;102067.50;5136683;27;20043;-61
2022/05/20 01:43:59;;;;;;;21.00;17.90;;;;;;;18.05;55.51;102074.94;5136297;27;20047;-60
2022/05/20 01:46:39;;;;;;;21.67;17.00;;;;;;;18.02;55.25;102063.44;5136539;27;20488;-60
2022/05/20 01:49:12;;;;;;;22.48;17.95;;;;;;;18.00;55.46;102066.28;5136563;27;20084;-60
2022/05/20 01:51:48;;;;;;;39.88;18.52;;;;;;;17.96;55.24;102056.66;5136499;27;20057;-60
2022/05/20 01:54:32;;;;;;;29.08;20.10;;;;;;;17.93;55.38;102053.34;5136098;27;20477;-60
2022/05/20 01:57:11;;;;;;;24.73;21.33;;;;;;;17.90;55.90;102054.47;5136571;27;20039;-60
2022/05/20 01:59:44;;;;;;;26.30;22.33;;;;;;;17.91;56.03;102047.16;5136372;27;20043;-60
2022/05/20 02:02:25;;;;;;;26.05;22.13;;;;;;;17.90;55.85;102040.88;5136310;27;20053;-60
2022/05/20 02:04:58;;;;;;;25.88;22.60;;;;;;;17.89;56.16;102041.00;5136143;27;20100;-61
2022/05/20 02:07:30;;;;;;;30.27;23.45;;;;;;;17.89;55.93;102035.56;5136368;27;20031;-60
2022/05/20 02:10:16;;;;;;;26.77;22.70;;;;;;;17.87;56.21;102034.84;5136271;27;20062;-62
2022/05/20 02:12:48;;;;;;;32.80;22.30;;;;;;;17.86;56.17;102033.97;5135982;27;20431;-60
2022/05/20 02:15:28;;;;;;;47.45;22.70;;;;;;;17.84;55.85;102045.97;5134108;27;20051;-59
2022/05/20 02:18:00;;;;;;;29.25;21.77;;;;;;;17.79;55.74;102043.59;5136004;27;20043;-60
2022/05/20 02:20:40;;;;;;;25.80;23.00;;;;;;;17.72;56.27;102035.06;5136154;27;20043;-60
2022/05/20 02:23:20;;;;;;;27.48;21.98;;;;;;;17.67;55.86;102040.03;5135566;27;20035;-60
2022/05/20 02:25:52;;;;;;;30.42;22.27;;;;;;;17.66;56.12;102038.31;5135795;27;20369;-59
2022/05/20 02:28:22;;;;;;;26.55;22.52;;;;;;;17.65;56.05;102038.41;5135777;27;20035;-59
2022/05/20 02:30:50;;;;;;;26.38;23.58;;;;;;;17.63;56.07;102034.94;5135832;27;20069;-60
2022/05/20 02:33:25;;;;;;;25.92;23.13;;;;;;;17.65;56.56;102038.41;5135110;27;20447;-60
2022/05/20 02:36:08;;;;;;;32.85;22.77;;;;;;;17.62;56.57;102034.06;5135768;27;20047;-59
2022/05/20 02:38:36;;;;;;;24.70;22.10;;;;;;;17.62;56.44;102030.50;5135256;27;20393;-60
2022/05/20 02:41:03;;;;;;;23.02;20.70;;;;;;;17.61;56.51;102023.34;5135510;27;20586;-60
2022/05/20 02:43:30;;;;;;;23.08;20.67;;;;;;;17.59;56.20;102020.75;5134953;27;20039;-59
2022/05/20 02:45:58;;;;;;;22.75;20.35;;;;;;;17.55;56.64;102013.84;5135281;27;20043;-59
2022/05/20 02:48:24;;;;;;;21.98;19.88;;;;;;;17.52;56.62;102015.94;5135211;27;20050;-60
2022/05/20 02:50:51;;;;;;;22.13;19.90;;;;;;;17.46;56.10;102020.88;5134812;27;20051;-60
2022/05/20 02:53:18;;;;;;;23.05;20.65;;;;;;;17.40;56.40;102020.53;5134687;27;20047;-61
2022/05/20 02:55:46;;;;;;;23.38;20.95;;;;;;;17.34;56.27;102026.44;5135011;27;20039;-60
2022/05/20 03:04:09;;;;;;;22.73;20.33;;;;;;;17.32;56.44;102029.28;5134857;27;20043;-62
2022/05/20 03:04:12;;;;;;;41.58;19.75;;;;;;;17.26;56.06;102031.63;5134660;27;20054;-60
2022/05/20 03:06:46;;;;;;;33.63;19.95;;;;;;;17.08;56.36;102031.22;5134929;27;20137;-61
2022/05/20 03:09:14;;;;;;;26.42;19.15;;;;;;;16.96;56.43;102033.06;5135085;27;20047;-60
2022/05/20 03:11:41;;;;;;;37.47;19.73;;;;;;;16.90;56.62;102033.56;5134780;27;20039;-60
2022/05/20 03:14:15;;;;;;;29.00;19.80;;;;;;;16.80;56.57;102033.41;5134619;27;20053;-60
2022/05/20 03:16:41;;;;;;;23.80;20.15;;;;;;;16.73;56.62;102037.59;5134426;27;20061;-60
2022/05/20 03:19:09;;;;;;;26.23;22.42;;;;;;;16.70;56.71;102024.25;5116337;27;20126;-60
2022/05/20 03:21:37;;;;;;;24.27;21.75;;;;;;;16.72;57.15;102024.16;5134467;27;20043;-60
2022/05/20 03:24:06;;;;;;;25.55;21.48;;;;;;;16.75;57.00;102026.63;5134275;27;20039;-60
2022/05/20 03:26:34;;;;;;;28.27;21.05;;;;;;;16.76;56.92;102031.94;5133815;27;20097;-61
2022/05/20 03:29:03;;;;;;;24.30;20.13;;;;;;;16.76;57.17;102025.63;5134340;27;20057;-60
2022/05/20 03:31:33;;;;;;;22.75;20.05;;;;;;;16.68;57.00;102014.53;5134304;27;20500;-60
2022/05/20 03:34:08;;;;;;;33.60;20.63;;;;;;;16.58;57.01;102022.47;5134350;27;20096;-61
2022/05/20 03:36:41;;;;;;;44.90;20.45;;;;;;;16.56;57.46;102020.88;5134020;27;20035;-60
2022/05/20 03:39:11;;;;;;;22.08;19.88;;;;;;;16.56;57.14;102019.03;5134067;27;20047;-60
2022/05/20 03:41:38;;;;;;;24.00;20.83;;;;;;;16.56;57.37;102026.28;5133950;27;20554;-60
2022/05/20 03:44:08;;;;;;;33.15;21.63;;;;;;;16.56;57.25;102024.44;5134005;27;20039;-60
2022/05/20 03:46:42;;;;;;;48.55;21.42;;;;;;;16.53;57.52;102020.13;5133639;27;20054;-60
2022/05/20 03:49:10;;;;;;;24.90;22.27;;;;;;;16.49;57.53;102024.06;5133940;27;20051;-60
2022/05/20 03:51:37;;;;;;;30.65;21.70;;;;;;;16.50;57.59;102024.91;5133687;27;20048;-60
2022/05/20 03:54:07;;;;;;;24.92;22.35;;;;;;;16.52;57.84;102023.81;5133725;27;20423;-60
2022/05/20 03:56:33;;;;;;;44.05;22.15;;;;;;;16.56;57.92;102029.88;5134040;27;20043;-60
2022/05/20 03:59:00;;;;;;;92.82;24.05;;;;;;;16.60;57.61;102030.50;5133984;27;20126;-60
2022/05/20 04:04:17;;;;;;;26.65;22.45;;;;;;;16.50;57.89;102020.38;5118342;27;20043;-60
2022/05/20 04:06:43;;;;;;;23.77;21.27;;;;;;;16.50;57.67;102023.06;5133593;27;20126;-60
2022/05/20 04:09:10;;;;;;;22.65;20.35;;;;;;;16.52;57.79;102015.69;5133610;27;20467;-60
2022/05/20 04:11:37;;;;;;;22.40;20.08;;;;;;;16.55;58.06;102020.00;5133154;27;20047;-60
2022/05/20 04:14:05;;;;;;;28.85;20.77;;;;;;;16.59;57.92;102024.22;5133503;27;20040;-60
2022/05/20 04:16:32;;;;;;;21.70;19.50;;;;;;;16.57;57.88;102014.47;5133349;27;20088;-60
2022/05/20 04:18:59;;;;;;;23.75;19.80;;;;;;;16.54;57.91;102010.16;5133509;27;20131;-61
2022/05/20 04:21:25;;;;;;;20.92;18.77;;;;;;;16.52;58.11;102006.69;5133288;27;20039;-60
2022/05/20 04:23:56;;;;;;;21.42;18.35;;;;;;;16.51;57.96;102000.41;5133271;27;20067;-60
2022/05/20 04:26:22;;;;;;;22.58;19.10;;;;;;;16.50;58.10;101995.97;5133213;27;20511;-60
2022/05/20 04:28:49;;;;;;;21.58;19.27;;;;;;;16.50;57.98;101995.97;5133492;27;20124;-60
2022/05/20 04:31:15;;;;;;;22.05;19.40;;;;;;;16.49;57.90;101996.94;5133138;27;20046;-60
2022/05/20 04:33:46;;;;;;;30.05;18.77;;;;;;;16.51;58.26;101986.84;5133169;27;20047;-60
2022/05/20 04:36:13;;;;;;;21.17;19.08;;;;;;;16.51;57.86;101981.41;5132878;27;20062;-60
2022/05/20 04:38:39;;;;;;;20.75;18.52;;;;;;;16.52;58.17;101980.44;5132212;27;20441;-60
2022/05/20 04:47:13;;;;;;;21.42;19.15;;;;;;;16.66;58.07;101994.78;5133458;27;20432;-60
2022/05/20 04:49:32;;;;;;;20.65;18.58;;;;;;;16.67;58.25;101991.97;5128787;27;20051;-59
2022/05/20 04:52:02;;;;;;;19.17;17.27;;;;;;;16.68;58.12;101993.69;5133102;27;20039;-60
2022/05/20 04:54:50;;;;;;;21.90;19.67;;;;;;;16.71;58.64;102000.72;5133047;28;20130;-60
2022/05/20 04:57:47;;;;;;;22.75;20.42;;;;;;;16.73;58.42;101993.31;5132999;28;20054;-60
2022/05/20 05:00:17;;;;;;;24.45;21.75;;;;;;;16.77;58.23;101992.97;5125628;28;20051;-60
2022/05/20 05:02:45;;;;;;;24.08;21.52;;;;;;;16.80;58.58;101984.56;5132953;28;20471;-59
2022/05/20 05:05:16;;;;;;;25.40;22.80;;;;;;;16.85;58.74;101986.94;5133013;28;20130;-60
2022/05/20 05:07:45;;;;;;;24.63;22.02;;;;;;;16.90;58.99;102000.13;5132977;28;20054;-60
2022/05/20 05:10:15;;;;;;;24.48;21.63;;;;;;;16.96;58.83;102005.94;5133351;28;20445;-59
2022/05/20 05:12:42;;;;;;;25.35;22.75;;;;;;;17.05;58.81;102015.19;5132809;28;20488;-59
2022/05/20 05:15:12;;;;;;;24.13;21.52;;;;;;;17.12;59.03;102021.88;5133211;28;20134;-59
2022/05/20 05:20:27;;;;;;;25.63;22.80;;;;;;;17.25;58.99;102019.91;5132849;28;20039;-59
2022/05/20 05:22:55;;;;;;;24.77;22.23;;;;;;;17.28;58.75;102027.81;5133120;28;20039;-59
2022/05/20 05:25:28;;;;;;;24.75;22.15;;;;;;;17.30;59.07;102025.84;5133433;28;20404;-59
2022/05/20 05:27:55;;;;;;;24.48;21.85;;;;;;;17.32;59.28;102023.84;5132726;28;20062;-59
2022/05/20 05:30:22;;;;;;;26.23;21.45;;;;;;;17.35;59.19;102020.91;5133092;28;20047;-59
2022/05/20 05:32:49;;;;;;;24.13;21.52;;;;;;;17.36;59.08;102011.75;5133009;28;20130;-61
2022/05/20 05:35:26;;;;;;;22.88;20.58;;;;;;;17.40;59.41;102015.94;5132842;28;20044;-60
2022/05/20 05:37:53;;;;;;;21.15;18.83;;;;;;;17.46;59.40;102004.59;5132932;28;20039;-60
2022/05/20 05:40:26;;;;;;;22.45;20.13;;;;;;;17.55;59.61;102000.25;5132996;28;20305;-61
2022/05/20 05:42:55;;;;;;;22.50;20.20;;;;;;;17.64;59.37;101995.91;5133176;28;20406;-60
2022/05/20 05:45:27;;;;;;;24.88;22.27;;;;;;;17.71;59.35;101999.88;5133190;28;20046;-60
2022/05/20 05:47:57;;;;;;;24.25;21.63;;;;;;;17.79;59.32;102002.81;5133052;28;20046;-60
2022/05/20 05:50:24;;;;;;;26.83;23.40;;;;;;;17.85;59.50;102007.78;5117212;27;20051;-60
2022/05/20 05:52:55;;;;;;;27.50;24.67;;;;;;;17.94;59.82;102009.72;5136622;27;20400;-60
2022/05/20 05:55:27;;;;;;;27.63;24.55;;;;;;;18.05;59.99;101998.81;5136635;27;20054;-60
2022/05/20 05:57:54;;;;;;;27.15;23.90;;;;;;;18.16;59.64;102000.63;5136973;27;20130;-61
2022/05/20 06:00:20;;;;;;;30.80;27.42;;;;;;;18.26;59.78;101995.28;5136881;27;20122;-60
2022/05/20 06:02:47;;;;;;;30.77;25.55;;;;;;;18.33;59.96;101983.72;5136515;27;20058;-60
2022/05/20 06:05:15;;;;;;;29.17;24.25;;;;;;;18.40;60.09;101979.50;5135685;27;20109;-60
2022/05/20 06:07:42;;;;;;;32.40;25.58;;;;;;;18.47;60.27;101979.81;5135308;27;20046;-60
2022/05/20 06:10:09;;;;;;;28.55;24.67;;;;;;;18.59;60.31;101978.78;5135425;27;20047;-62
2022/05/20 06:12:36;;;;;;;30.67;25.25;;;;;;;18.73;60.07;101986.66;5135261;27;20046;-60
2022/05/20 06:15:06;;;;;;;28.88;25.10;;;;;;;18.89;60.41;101980.72;5135195;27;20044;-60
2022/05/20 06:17:33;;;;;;;31.88;26.63;;;;;;;19.00;60.48;101969.72;5135218;27;20139;-59
2022/05/20 06:20:02;;;;;;;30.23;24.70;;;;;;;19.10;60.29;101963.47;5135143;27;20039;-61
2022/05/20 06:22:28;;;;;;;30.58;23.85;;;;;;;19.15;60.03;101955.75;5135252;27;20039;-60
2022/05/20 06:24:56;;;;;;;31.45;24.70;;;;;;;19.25;60.03;101940.31;5135079;27;20042;-60
2022/05/20 06:27:22;;;;;;;24.70;22.10;;;;;;;19.33;59.95;101940.50;5134596;27;20485;-60
2022/05/20 06:29:50;;;;;;;26.77;21.73;;;;;;;19.47;60.31;101942.81;5134749;27;20039;-60
2022/05/20 06:32:18;;;;;;;26.05;22.02;;;;;;;19.66;60.03;101940.16;5134668;27;20039;-60
2022/05/20 06:40:21;;;;;;;22.17;17.03;;;;;;;20.16;59.47;101955.56;5114456;28;20263;-59
2022/05/20 06:42:47;;;;;;;18.05;15.18;;;;;;;20.29;59.19;101958.84;5114307;28;20285;-59
2022/05/20 06:45:19;;;;;;;22.52;15.90;;;;;;;20.47;58.63;101967.19;5114193;28;20100;-60
2022/05/20 06:47:45;;;;;;;17.77;15.63;;;;;;;20.67;58.75;101960.69;5132782;27;20503;-60
2022/05/20 06:50:13;;;;;;;22.15;16.70;;;;;;;20.85;58.57;101947.16;5129524;27;20043;-59
2022/05/20 06:52:39;;;;;;;19.48;16.80;;;;;;;20.94;57.97;101949.84;5132549;27;20039;-59
2022/05/20 06:55:08;;;;;;;20.05;16.42;;;;;;;21.02;58.12;101942.78;5134214;27;20042;-59
2022/05/20 06:57:39;;;;;;;22.90;17.58;;;;;;;21.16;57.89;101934.09;5133396;27;20039;-59
2022/05/20 07:00:10;;;;;;;15.85;13.02;;;;;;;21.26;57.20;101926.72;5134111;27;20481;-60
2022/05/20 07:02:36;;;;;;;18.13;13.45;;;;;;;21.36;57.12;101921.22;5133572;27;20488;-60
2022/05/20 07:05:06;;;;;;;17.35;12.50;;;;;;;21.40;56.60;101918.00;5134031;27;20035;-60
2022/05/20 07:07:32;;;;;;;17.48;13.52;;;;;;;21.44;56.17;101924.91;5133524;27;20055;-59
2022/05/20 07:10:00;;;;;;;16.83;12.38;;;;;;;21.51;56.20;101915.06;5133925;27;20043;-59
2022/05/20 07:12:26;;;;;;;18.50;13.02;;;;;;;21.61;55.91;101912.28;5133083;27;20054;-59
2022/05/20 07:15:00;;;;;;;15.35;11.82;;;;;;;21.73;55.23;101911.06;5133441;27;20045;-60
2022/05/20 07:17:32;;;;;;;16.08;12.15;;;;;;;21.91;55.36;101900.09;5133314;27;20059;-59
2022/05/20 07:20:00;;;;;;;16.02;11.75;;;;;;;22.08;55.00;101899.25;5134055;27;20050;-59
2022/05/20 07:22:26;;;;;;;14.45;12.23;;;;;;;22.26;54.86;101903.84;5134076;27;20034;-59
2022/05/20 07:24:57;;;;;;;13.02;10.98;;;;;;;22.41;54.32;101899.53;5132931;27;20039;-61
2022/05/20 07:27:24;;;;;;;13.85;11.25;;;;;;;22.54;53.66;101894.47;5133535;27;20049;-60
2022/05/20 07:29:50;;;;;;;13.00;9.35;;;;;;;22.67;52.76;101889.44;5133354;27;20042;-61
2022/05/20 07:32:16;;;;;;;12.75;8.88;;;;;;;22.76;52.63;101882.97;5133671;27;20397;-61
2022/05/20 07:34:43;;;;;;;14.27;9.68;;;;;;;22.86;52.52;101890.25;5133261;27;20512;-61
2022/05/20 07:37:12;;;;;;;11.23;9.35;;;;;;;23.00;52.34;101884.13;5132512;27;20042;-62
2022/05/20 07:39:39;;;;;;;13.93;9.95;;;;;;;23.14;52.25;101880.81;5133468;27;20046;-63
2022/05/20 07:42:06;;;;;;;15.73;10.15;;;;;;;23.26;52.14;101870.38;5133329;27;20532;-62
2022/05/20 07:44:35;;;;;;;13.38;10.35;;;;;;;23.41;51.77;101861.34;5132636;27;20039;-62
2022/05/20 07:47:03;;;;;;;13.85;10.20;;;;;;;23.54;51.49;101855.38;5132762;27;20061;-62
2022/05/20 07:49:30;;;;;;;13.35;9.35;;;;;;;23.65;50.89;101854.22;5133321;27;20058;-62
2022/05/20 07:51:57;;;;;;;10.68;8.35;;;;;;;23.73;50.47;101854.22;5133269;27;20039;-62
2022/05/20 07:54:34;;;;;;;13.27;8.50;;;;;;;23.81;50.25;101856.13;5133131;27;20039;-62
2022/05/20 07:57:04;;;;;;;11.32;7.90;;;;;;;23.88;49.81;101857.16;5132666;27;20055;-62
2022/05/20 07:59:48;;;;;;;14.43;8.82;;;;;;;23.96;49.75;101854.41;5132926;27;20054;-61
2022/05/20 08:02:17;;;;;;;13.15;9.48;;;;;;;24.06;49.60;101849.63;5133080;27;20036;-62
2022/05/20 08:04:55;;;;;;;12.98;8.18;;;;;;;24.15;49.41;101848.56;5132766;27;20062;-60
2022/05/20 08:07:31;;;;;;;11.80;7.68;;;;;;;24.18;48.80;101856.47;5132893;27;20501;-61
2022/05/20 08:10:00;;;;;;;10.48;7.63;;;;;;;24.24;48.93;101841.19;5115198;27;20045;-61
2022/05/20 08:12:27;;;;;;;8.45;6.57;;;;;;;24.34;48.40;101842.75;5132649;27;20043;-61
2022/05/20 08:14:57;;;;;;;12.55;7.22;;;;;;;24.41;48.04;101848.38;5132590;27;20405;-61
2022/05/20 08:17:25;;;;;;;10.38;7.60;;;;;;;24.43;47.62;101840.81;5132042;27;20141;-61
2022/05/20 08:19:55;;;;;;;10.43;7.30;;;;;;;24.44;47.50;101838.94;5132346;27;20420;-61
2022/05/20 08:22:23;;;;;;;12.70;6.75;;;;;;;24.42;47.39;101824.53;5132872;27;20050;-61
2022/05/20 08:24:57;;;;;;;9.35;6.03;;;;;;;24.45;47.37;101826.94;5132559;27;20130;-61
2022/05/20 08:27:27;;;;;;;7.82;5.50;;;;;;;24.52;47.32;101826.03;5132167;27;20051;-60
2022/05/20 08:29:55;;;;;;;8.55;5.75;;;;;;;24.61;47.19;101830.50;5132389;27;20118;-61
2022/05/20 08:32:21;;;;;;;9.27;4.53;;;;;;;24.68;47.05;101823.28;5132223;27;20420;-60
2022/05/20 08:34:48;;;;;;;7.95;4.03;;;;;;;24.75;46.23;101822.56;5132227;27;20042;-62
2022/05/20 08:37:16;;;;;;;6.93;4.28;;;;;;;24.80;45.95;101807.25;5131937;27;20396;-60
2022/05/20 08:39:43;;;;;;;5.97;3.97;;;;;;;24.92;45.58;101815.94;5131685;27;20031;-63
2022/05/20 08:42:17;;;;;;;11.40;4.90;;;;;;;25.00;45.26;101807.69;5132429;27;20039;-60
2022/05/20 08:44:45;;;;;;;8.15;4.32;;;;;;;25.09;45.15;101803.00;5132286;27;20046;-60
2022/05/20 08:47:21;;;;;;;7.20;4.90;;;;;;;25.19;44.80;101814.63;5131901;27;20074;-60
2022/05/20 08:49:53;;;;;;;10.27;4.68;;;;;;;25.31;45.04;101797.56;5132545;27;20027;-61
2022/05/20 08:52:20;;;;;;;8.80;5.20;;;;;;;25.42;44.99;101801.78;5132829;27;20043;-60
2022/05/20 08:54:48;;;;;;;6.97;4.90;;;;;;;25.45;44.62;101789.56;5133046;28;20036;-60
2022/05/20 08:57:35;;;;;;;11.32;4.30;;;;;;;25.46;44.42;101778.38;5132566;28;20039;-60
2022/05/20 09:00:09;;;;;;;9.52;4.55;;;;;;;25.44;44.35;101779.59;5130027;28;20484;-60
2022/05/20 09:02:37;;;;;;;8.68;4.95;;;;;;;25.40;44.21;101757.09;5132400;28;20448;-60
2022/05/20 09:05:29;;;;;;;6.13;4.78;;;;;;;25.30;44.01;101753.75;5131886;28;20377;-60
2022/05/20 09:08:14;;;;;;;9.82;4.88;;;;;;;25.26;44.29;101738.63;5131850;28;20163;-61
2022/05/20 09:10:47;;;;;;;5.57;4.50;;;;;;;25.29;44.18;101733.66;5131526;28;20054;-61
2022/05/20 09:16:22;;;;;;;6.28;4.45;;;;;;;25.43;44.07;101731.13;5131835;28;20043;-60
2022/05/20 09:19:04;;;;;;;5.60;4.60;;;;;;;25.48;43.97;101736.94;5131921;28;20057;-61
2022/05/20 09:21:38;;;;;;;5.75;4.28;;;;;;;25.57;43.70;101738.56;5132022;28;20032;-60
2022/05/20 09:24:16;;;;;;;7.07;4.45;;;;;;;25.61;43.57;101739.91;5132919;27;20426;-61
2022/05/20 09:26:50;;;;;;;8.55;4.38;;;;;;;25.61;43.57;101729.75;5136367;27;20057;-60
2022/05/20 09:29:29;;;;;;;8.50;5.32;;;;;;;25.66;43.61;101729.22;5135525;27;20546;-61
2022/05/20 09:32:23;;;;;;;9.55;5.78;;;;;;;25.59;43.32;101729.09;5135708;27;20515;-61
2022/05/20 09:35:03;;;;;;;6.82;5.28;;;;;;;25.55;43.35;101719.50;5135466;27;20088;-60
2022/05/20 09:37:33;;;;;;;10.02;5.10;;;;;;;25.53;43.20;101706.97;5135409;27;20116;-60
2022/05/20 09:40:36;;;;;;;9.00;4.85;;;;;;;25.51;43.36;101709.06;5135726;27;20045;-60
2022/05/20 09:43:38;;;;;;;9.63;5.05;;;;;;;25.57;43.50;101702.81;5135191;27;20043;-60
2022/05/20 09:46:05;;;;;;;9.32;5.90;;;;;;;25.59;43.46;101697.97;5135043;27;20058;-60
2022/05/20 09:48:38;;;;;;;7.13;5.95;;;;;;;25.64;43.63;101687.25;5134663;27;20035;-61
2022/05/20 09:51:13;;;;;;;8.35;5.70;;;;;;;25.73;43.62;101685.31;5135815;27;20414;-60
2022/05/20 09:54:13;;;;;;;9.02;5.95;;;;;;;25.88;43.71;101672.44;5135579;27;20046;-62
2022/05/20 09:56:44;;;;;;;9.65;5.75;;;;;;;26.00;43.63;101659.03;5135306;27;20496;-59
2022/05/20 09:59:14;;;;;;;8.02;6.03;;;;;;;26.09;43.69;101645.03;5135462;27;20035;-60
2022/05/20 10:01:51;;;;;;;7.30;5.45;;;;;;;26.16;43.11;101637.69;5135345;27;20042;-60
2022/05/20 10:04:31;;;;;;;8.70;6.20;;;;;;;26.27;43.29;101647.38;5135234;27;20031;-60
2022/05/20 10:07:01;;;;;;;9.48;6.13;;;;;;;26.44;43.32;101629.59;5135321;27;20047;-60
2022/05/20 10:09:40;;;;;;;9.38;5.90;;;;;;;26.58;42.96;101623.19;5134758;27;20039;-60
2022/05/20 10:12:31;;;;;;;8.70;5.93;;;;;;;26.70;43.12;101614.41;5135140;27;20043;-61
2022/05/20 10:15:13;;;;;;;10.57;6.78;;;;;;;26.86;42.95;101608.66;5135419;27;20569;-61
2022/05/20 10:17:48;;;;;;;9.65;6.30;;;;;;;26.95;42.46;101592.84;5134841;27;20439;-61
2022/05/20 10:20:24;;;;;;;;;;;;;;;27.03;42.99;101581.69;5115060;28;20039;-61
2022/05/20 10:23:06;;;;;;;10.07;6.82;;;;;;;27.16;43.00;101565.25;5114306;28;20010;-60
2022/05/20 10:25:50;;;;;;;10.90;7.65;;;;;;;27.22;42.60;101565.31;5114569;28;20523;-60
2022/05/20 10:34:34;;;;;;;12.45;7.88;;;;;;;27.64;43.06;101530.41;5114295;28;20043;-63
2022/05/20 10:37:22;;;;;;;10.75;7.97;;;;;;;27.81;42.30;101523.47;5112787;28;20038;-62
2022/05/20 10:40:06;;;;;;;7.40;6.57;;;;;;;27.94;42.00;101521.81;5114009;28;20096;-63
2022/05/20 10:42:58;;;;;;;12.13;7.97;;;;;;;28.00;41.70;101515.47;5096269;28;20131;-62
2022/05/20 10:48:35;;;;;;;13.27;9.15;;;;;;;28.04;41.48;101505.72;5135982;27;20050;-63
2022/05/20 10:51:21;;;;;;;10.35;8.77;;;;;;;28.10;41.45;101508.50;5136083;27;20049;-62
2022/05/20 10:54:18;;;;;;;14.23;9.68;;;;;;;28.12;41.41;101497.25;5117484;27;20127;-63
2022/05/20 10:56:58;;;;;;;14.48;9.52;;;;;;;28.13;41.12;101490.66;5135337;27;20066;-63
2022/05/20 11:00:05;;;;;;;12.48;9.52;;;;;;;28.15;41.26;101477.50;5135429;27;20045;-62
2022/05/20 11:03:19;;;;;;;11.18;9.38;;;;;;;28.20;41.37;101463.06;5135692;27;20066;-63
2022/05/20 11:06:25;;;;;;;12.68;9.90;;;;;;;28.18;41.20;101432.88;5135480;27;20043;-63
2022/05/20 11:09:08;;;;;;;17.50;10.70;;;;;;;28.16;41.17;101421.19;5135569;27;20043;-63
2022/05/20 11:11:48;;;;;;;13.65;9.82;;;;;;;28.16;41.33;101399.97;5135722;27;20039;-62
2022/05/20 11:14:28;;;;;;;15.85;10.70;;;;;;;28.18;41.33;101384.03;5134738;27;20512;-62
2022/05/20 11:17:33;;;;;;;13.00;10.45;;;;;;;28.23;41.43;101372.38;5134760;27;20049;-62
2022/05/20 11:20:17;;;;;;;16.33;11.23;;;;;;;28.30;41.08;101367.72;5134912;27;20409;-62
2022/05/20 11:23:21;;;;;;;15.55;11.23;;;;;;;28.29;41.03;101356.88;5134653;27;20502;-62
2022/05/20 11:26:11;;;;;;;15.57;11.43;;;;;;;28.27;40.93;101357.09;5133849;27;20039;-62
2022/05/20 11:28:58;;;;;;;14.80;10.77;;;;;;;28.27;40.77;101350.72;5110027;27;20039;-62
2022/05/20 11:31:36;;;;;;;16.85;12.02;;;;;;;28.22;41.40;101328.34;5128619;27;20498;-63
2022/05/20 11:34:18;;;;;;;14.52;10.77;;;;;;;28.17;41.24;101318.81;5125203;27;20097;-62
2022/05/20 11:36:52;;;;;;;17.10;11.77;;;;;;;28.17;41.28;101315.19;5125649;27;20043;-62
2022/05/20 11:39:43;;;;;;;17.90;12.57;;;;;;;28.16;41.69;101306.06;5128845;27;20074;-62
2022/05/20 11:42:33;;;;;;;17.08;12.65;;;;;;;28.15;41.45;101309.03;5128174;27;20062;-61
2022/05/20 11:45:20;;;;;;;16.50;12.73;;;;;;;28.06;41.38;101294.59;5133918;27;20039;-62
2022/05/20 11:47:59;;;;;;;15.48;13.05;;;;;;;27.99;41.23;101290.13;5134158;27;20030;-62
2022/05/20 11:50:42;;;;;;;16.60;12.88;;;;;;;27.87;41.56;101283.56;5134066;27;20043;-61
2022/05/20 11:53:27;;;;;;;18.38;13.70;;;;;;;27.73;41.58;101293.72;5134603;27;20130;-62
2022/05/20 11:56:02;;;;;;;18.63;12.93;;;;;;;27.67;41.68;101289.06;5133703;27;20043;-62
2022/05/20 11:58:53;;;;;;;20.45;13.60;;;;;;;27.57;41.89;101292.19;5133540;27;20050;-63
2022/05/20 12:01:21;;;;;;;17.70;13.43;;;;;;;27.49;42.11;101273.06;5127828;27;20056;-62
2022/05/20 12:04:08;;;;;;;16.15;12.77;;;;;;;27.42;42.47;101281.31;5130186;27;20420;-64
2022/05/20 12:06:46;;;;;;;18.30;12.40;;;;;;;27.35;42.51;101279.59;5129698;27;20114;-61
2022/05/20 12:09:28;;;;;;;16.17;12.48;;;;;;;27.31;42.82;101267.28;5129229;27;20142;-62
2022/05/20 12:12:18;;;;;;;18.63;12.90;;;;;;;27.25;43.05;101248.81;5128313;27;20066;-62
2022/05/20 12:15:13;;;;;;;17.67;12.95;;;;;;;27.16;43.42;101265.56;5126597;27;20059;-62